Time;durP1;ratioP1;P1;durP2;ratioP2;P2;SDS_P1;SDS_P2;PMS_P1;PMS_P2;Temp;Humidity;BMP_temperature;BMP_pressure;BME280_temperature;BME280_humidity;BME280_pressure;Samples;Min_cycle;Max_cycle;Signal;HPM_P1;HPM_P2
2022/08/29 00:00:37;;;;;;;10.70;4.70;;;;;;;;;;5038729;28;20065;-88
2022/08/29 00:03:05;;;;;;;8.68;4.75;;;;;;;;;;5038626;28;20124;-89
2022/08/29 00:05:35;;;;;;;6.80;4.30;;;;;;;;;;5038728;28;20644;-88
2022/08/29 00:08:04;;;;;;;7.43;4.50;;;;;;;;;;5055867;28;20049;-88
2022/08/29 00:10:31;;;;;;;9.57;4.22;;;;;;;;;;5037065;28;20520;-88
2022/08/29 00:12:59;;;;;;;12.73;4.57;;;;;;;;;;5055892;28;20084;-89
2022/08/29 00:15:26;;;;;;;10.20;4.78;;;;;;;;;;5038372;28;20049;-89
2022/08/29 00:17:53;;;;;;;8.80;4.50;;;;;;;;;;5055608;28;20501;-88
2022/08/29 00:20:23;;;;;;;7.03;4.50;;;;;;;;;;5055723;28;20080;-88
2022/08/29 00:23:01;;;;;;;6.45;4.28;;;;;;;;;;5039709;28;20052;-88
2022/08/29 00:25:28;;;;;;;7.65;4.53;;;;;;;;;;5055677;28;20125;-88
2022/08/29 00:27:55;;;;;;;8.32;5.00;;;;;;;;;;5037969;28;20084;-88
2022/08/29 00:30:23;;;;;;;7.30;4.85;;;;;;;;;;5055688;28;20106;-88
2022/08/29 00:32:51;;;;;;;9.88;5.43;;;;;;;;;;5037867;28;20084;-89
2022/08/29 00:35:26;;;;;;;6.20;4.43;;;;;;;;;;5055303;28;20524;-88
2022/08/29 00:37:54;;;;;;;12.93;4.45;;;;;;;;;;5055401;28;20053;-89
2022/08/29 00:40:24;;;;;;;8.27;4.50;;;;;;;;;;5055534;28;20132;-89
2022/08/29 00:42:52;;;;;;;5.15;4.40;;;;;;;;;;5037923;28;20076;-89
2022/08/29 00:45:19;;;;;;;8.93;4.60;;;;;;;;;;5037726;28;20084;-88
2022/08/29 00:47:51;;;;;;;7.88;4.20;;;;;;;;;;5037903;28;20053;-88
2022/08/29 00:50:22;;;;;;;8.27;4.07;;;;;;;;;;5037803;28;20186;-89
2022/08/29 00:52:49;;;;;;;9.27;4.05;;;;;;;;;;5037625;28;20187;-89
2022/08/29 00:55:20;;;;;;;10.73;4.25;;;;;;;;;;5037746;28;20087;-89
2022/08/29 00:57:48;;;;;;;12.60;5.22;;;;;;;;;;5037741;28;20091;-89
2022/08/29 01:00:16;;;;;;;5.82;4.13;;;;;;;;;;5038112;28;20080;-89
2022/08/29 01:02:44;;;;;;;7.30;5.07;;;;;;;;;;5037763;28;20474;-89
2022/08/29 01:05:14;;;;;;;8.32;4.80;;;;;;;;;;5037147;28;20489;-89
2022/08/29 01:07:43;;;;;;;15.65;5.32;;;;;;;;;;5037931;28;20072;-89
2022/08/29 01:12:14;;;;;;;8.75;5.10;;;;;;;;;;5054788;28;20076;-88
2022/08/29 01:12:58;;;;;;;7.38;4.50;;;;;;;;;;5054690;28;20099;-89
2022/08/29 01:15:26;;;;;;;12.30;5.40;;;;;;;;;;5054813;28;20512;-89
2022/08/29 01:17:54;;;;;;;15.52;6.07;;;;;;;;;;5032481;28;20553;-89
2022/08/29 01:20:34;;;;;;;12.20;5.40;;;;;;;;;;5033835;28;20053;-89
2022/08/29 01:23:07;;;;;;;11.20;5.32;;;;;;;;;;5033220;28;20073;-89
2022/08/29 01:25:37;;;;;;;17.15;5.82;;;;;;;;;;5034478;28;20056;-89
2022/08/29 01:28:09;;;;;;;7.57;5.35;;;;;;;;;;5034955;28;20157;-89
2022/08/29 01:30:36;;;;;;;15.35;6.10;;;;;;;;;;5033656;28;20058;-87
2022/08/29 01:33:03;;;;;;;10.45;5.50;;;;;;;;;;5033423;28;20528;-89
2022/08/29 01:35:32;;;;;;;7.40;4.68;;;;;;;;;;5033131;28;20136;-88
2022/08/29 01:38:00;;;;;;;5.70;4.68;;;;;;;;;;5034233;28;20053;-89
2022/08/29 01:40:29;;;;;;;15.38;5.30;;;;;;;;;;5033448;28;20457;-89
2022/08/29 01:42:57;;;;;;;9.80;5.25;;;;;;;;;;5033205;28;20437;-90
2022/08/29 01:45:24;;;;;;;9.45;5.20;;;;;;;;;;5033236;28;20086;-89
2022/08/29 01:47:51;;;;;;;12.25;5.22;;;;;;;;;;5032909;28;20053;-89
2022/08/29 01:50:18;;;;;;;9.48;5.38;;;;;;;;;;5034128;28;20073;-90
2022/08/29 01:52:46;;;;;;;9.73;5.15;;;;;;;;;;5033919;28;20088;-89
2022/08/29 01:55:13;;;;;;;9.45;5.05;;;;;;;;;;5032979;28;20081;-89
2022/08/29 01:57:41;;;;;;;7.43;4.40;;;;;;;;;;5033094;28;20395;-89
2022/08/29 02:00:09;;;;;;;14.27;5.28;;;;;;;;;;5033991;28;20080;-90
2022/08/29 02:02:38;;;;;;;7.80;5.40;;;;;;;;;;5032964;28;20084;-89
2022/08/29 02:05:07;;;;;;;14.52;5.60;;;;;;;;;;5032702;28;20096;-89
2022/08/29 02:07:34;;;;;;;15.73;5.28;;;;;;;;;;5032576;28;20080;-89
2022/08/29 02:10:01;;;;;;;9.50;5.25;;;;;;;;;;5033908;28;20395;-90
2022/08/29 02:12:30;;;;;;;5.72;4.38;;;;;;;;;;5033536;28;20156;-89
2022/08/29 02:14:57;;;;;;;8.23;4.53;;;;;;;;;;5032609;28;20053;-90
2022/08/29 02:17:24;;;;;;;7.80;4.63;;;;;;;;;;5048752;28;20138;-90
2022/08/29 02:19:51;;;;;;;8.00;4.60;;;;;;;;;;5036311;28;20469;-89
2022/08/29 02:22:19;;;;;;;9.38;4.60;;;;;;;;;;5053587;28;20143;-90
2022/08/29 02:24:46;;;;;;;10.25;4.85;;;;;;;;;;5036103;28;20406;-89
2022/08/29 02:27:13;;;;;;;10.40;4.63;;;;;;;;;;5053355;28;20135;-89
2022/08/29 02:29:40;;;;;;;6.78;4.70;;;;;;;;;;5053584;28;20083;-89
2022/08/29 02:32:10;;;;;;;6.95;4.20;;;;;;;;;;5035629;28;20080;-89
2022/08/29 02:34:38;;;;;;;10.10;4.57;;;;;;;;;;5035093;28;20053;-90
2022/08/29 02:37:09;;;;;;;9.10;5.03;;;;;;;;;;5036797;28;20068;-90
2022/08/29 02:39:37;;;;;;;9.68;5.03;;;;;;;;;;5053627;28;20084;-90
2022/08/29 02:42:04;;;;;;;20.02;5.55;;;;;;;;;;5036005;28;20848;-89
2022/08/29 02:44:31;;;;;;;11.68;5.00;;;;;;;;;;5035882;28;20053;-89
2022/08/29 02:46:58;;;;;;;4.82;4.40;;;;;;;;;;5035909;28;20129;-89
2022/08/29 02:49:26;;;;;;;10.85;6.18;;;;;;;;;;5053466;28;20071;-90
2022/08/29 02:51:53;;;;;;;24.92;20.05;;;;;;;;;;5053275;28;20485;-87
2022/08/29 02:54:20;;;;;;;20.17;14.57;;;;;;;;;;5053330;28;20072;-90
2022/08/29 02:56:47;;;;;;;29.20;15.63;;;;;;;;;;5053249;28;20068;-90
2022/08/29 02:59:14;;;;;;;75.93;47.47;;;;;;;;;;5053139;28;20087;-90
2022/08/29 03:01:41;;;;;;;40.97;27.67;;;;;;;;;;5053124;28;20041;-90
2022/08/29 03:04:09;;;;;;;25.20;14.02;;;;;;;;;;5035787;28;20048;-89
2022/08/29 03:06:36;;;;;;;17.33;11.68;;;;;;;;;;5053289;28;20420;-90
2022/08/29 03:09:03;;;;;;;14.68;8.77;;;;;;;;;;5052992;28;20099;-89
2022/08/29 03:11:30;;;;;;;20.25;13.50;;;;;;;;;;5036119;28;20087;-90
2022/08/29 03:13:57;;;;;;;15.10;10.07;;;;;;;;;;5035392;28;20584;-89
2022/08/29 03:16:25;;;;;;;15.85;11.38;;;;;;;;;;5035622;28;20136;-89
2022/08/29 03:18:53;;;;;;;11.90;7.55;;;;;;;;;;5052948;28;20481;-89
2022/08/29 03:21:21;;;;;;;18.27;9.68;;;;;;;;;;5035739;28;20131;-91
2022/08/29 03:23:49;;;;;;;9.77;5.18;;;;;;;;;;5035755;28;20064;-91
2022/08/29 03:26:17;;;;;;;8.95;5.30;;;;;;;;;;5035657;28;20131;-90
2022/08/29 03:28:44;;;;;;;11.70;5.53;;;;;;;;;;5035762;28;20049;-90
2022/08/29 03:31:12;;;;;;;12.43;5.75;;;;;;;;;;5035779;28;20417;-90
2022/08/29 03:33:40;;;;;;;10.35;6.05;;;;;;;;;;5035399;28;20056;-90
2022/08/29 03:36:08;;;;;;;12.23;6.30;;;;;;;;;;5052953;28;20049;-91
2022/08/29 03:38:41;;;;;;;11.63;6.63;;;;;;;;;;5053225;28;20080;-91
2022/08/29 03:41:08;;;;;;;11.95;6.93;;;;;;;;;;5035407;28;20083;-90
2022/08/29 03:43:36;;;;;;;10.13;6.18;;;;;;;;;;5035939;28;20044;-91
2022/08/29 03:46:03;;;;;;;9.07;6.85;;;;;;;;;;5037853;28;20179;-91
2022/08/29 03:48:32;;;;;;;13.32;7.20;;;;;;;;;;5039007;28;20041;-91
2022/08/29 03:50:59;;;;;;;9.13;6.80;;;;;;;;;;5039174;28;20049;-89
2022/08/29 03:53:27;;;;;;;10.13;6.85;;;;;;;;;;5038767;28;20555;-90
2022/08/29 03:55:56;;;;;;;14.32;8.75;;;;;;;;;;5039028;28;20052;-89
2022/08/29 03:58:24;;;;;;;13.18;7.60;;;;;;;;;;5038941;28;20107;-90
2022/08/29 04:00:51;;;;;;;11.63;6.88;;;;;;;;;;5038842;28;20073;-90
2022/08/29 04:03:19;;;;;;;11.73;6.40;;;;;;;;;;5038816;28;20077;-90
2022/08/29 04:05:56;;;;;;;18.67;10.48;;;;;;;;;;5039965;28;20060;-91
2022/08/29 04:08:23;;;;;;;18.05;7.82;;;;;;;;;;5055876;28;20572;-90
2022/08/29 04:10:51;;;;;;;16.48;6.55;;;;;;;;;;5038441;28;20386;-90
2022/08/29 04:13:18;;;;;;;16.45;6.00;;;;;;;;;;5055950;28;20049;-90
2022/08/29 04:15:45;;;;;;;15.00;6.30;;;;;;;;;;5038113;28;20098;-90
2022/08/29 04:18:12;;;;;;;11.93;5.80;;;;;;;;;;5056168;28;20080;-91
2022/08/29 04:20:47;;;;;;;7.72;5.70;;;;;;;;;;5039454;28;20052;-92
2022/08/29 04:23:14;;;;;;;11.25;4.90;;;;;;;;;;5055945;28;20080;-91
2022/08/29 04:25:42;;;;;;;10.77;5.60;;;;;;;;;;5055568;28;20053;-90
2022/08/29 04:28:11;;;;;;;8.98;5.00;;;;;;;;;;5038131;28;20041;-91
2022/08/29 04:30:39;;;;;;;9.00;5.13;;;;;;;;;;5038283;28;20048;-91
2022/08/29 04:33:06;;;;;;;11.75;5.25;;;;;;;;;;5037841;28;20619;-92
2022/08/29 04:35:36;;;;;;;11.63;5.10;;;;;;;;;;5038047;28;20052;-92
2022/08/29 04:38:03;;;;;;;9.45;5.38;;;;;;;;;;5037991;28;20088;-92
2022/08/29 04:40:30;;;;;;;7.90;5.15;;;;;;;;;;5055536;28;20141;-91
2022/08/29 04:42:58;;;;;;;9.63;5.40;;;;;;;;;;5055925;28;20055;-92
2022/08/29 04:45:26;;;;;;;14.30;6.97;;;;;;;;;;5039303;28;20057;-92
2022/08/29 04:47:53;;;;;;;12.88;6.95;;;;;;;;;;5056999;28;20064;-92
2022/08/29 04:50:21;;;;;;;10.23;6.53;;;;;;;;;;5055244;28;20132;-92
2022/08/29 04:52:49;;;;;;;11.60;6.90;;;;;;;;;;5037604;28;20126;-92
2022/08/29 04:55:18;;;;;;;17.98;7.95;;;;;;;;;;5037756;28;20195;-91
2022/08/29 04:57:52;;;;;;;7.53;6.05;;;;;;;;;;5037733;28;20060;-91
2022/08/29 05:00:22;;;;;;;10.60;6.15;;;;;;;;;;5037467;28;20087;-91
2022/08/29 05:02:49;;;;;;;9.52;6.25;;;;;;;;;;5037730;28;20053;-92
2022/08/29 05:05:17;;;;;;;6.75;5.63;;;;;;;;;;5037520;28;20064;-91
2022/08/29 05:07:47;;;;;;;12.68;6.05;;;;;;;;;;5037388;28;20207;-92
2022/08/29 05:10:18;;;;;;;14.20;10.13;;;;;;;;;;5037343;28;20079;-90
2022/08/29 05:12:45;;;;;;;25.90;16.67;;;;;;;;;;5037217;28;20132;-90
2022/08/29 05:15:14;;;;;;;25.73;17.50;;;;;;;;;;5037696;28;20178;-91
2022/08/29 05:17:41;;;;;;;23.20;16.95;;;;;;;;;;5037253;28;20076;-91
2022/08/29 05:20:08;;;;;;;19.75;15.57;;;;;;;;;;5037253;28;20114;-91
2022/08/29 05:22:37;;;;;;;17.55;13.80;;;;;;;;;;5037250;28;20240;-90
2022/08/29 05:25:05;;;;;;;18.50;11.65;;;;;;;;;;5037059;28;20128;-90
2022/08/29 05:27:32;;;;;;;11.43;9.82;;;;;;;;;;5037226;28;20053;-90
2022/08/29 05:30:00;;;;;;;9.95;7.18;;;;;;;;;;5037101;28;20075;-89
2022/08/29 05:32:27;;;;;;;5.38;4.63;;;;;;;;;;5037142;28;20513;-89
2022/08/29 05:34:55;;;;;;;6.40;4.13;;;;;;;;;;5036864;28;20053;-89
2022/08/29 05:37:22;;;;;;;8.68;3.60;;;;;;;;;;5036944;28;20079;-89
2022/08/29 05:39:50;;;;;;;6.32;2.55;;;;;;;;;;5036851;28;20045;-89
2022/08/29 05:42:18;;;;;;;5.70;2.85;;;;;;;;;;5036867;28;20049;-89
2022/08/29 05:44:46;;;;;;;6.32;2.50;;;;;;;;;;5036744;28;20045;-88
2022/08/29 05:47:14;;;;;;;7.53;2.75;;;;;;;;;;5036710;28;20457;-88
2022/08/29 05:49:42;;;;;;;4.85;2.28;;;;;;;;;;5036636;28;20073;-89
2022/08/29 05:52:09;;;;;;;5.43;2.03;;;;;;;;;;5036459;28;20049;-88
2022/08/29 05:54:38;;;;;;;8.38;2.85;;;;;;;;;;5036262;28;20075;-89
2022/08/29 05:57:05;;;;;;;4.60;2.00;;;;;;;;;;5036713;28;20049;-89
2022/08/29 05:59:34;;;;;;;7.40;2.38;;;;;;;;;;5036673;28;20083;-88
2022/08/29 06:02:01;;;;;;;3.72;1.85;;;;;;;;;;5036447;28;20041;-88
2022/08/29 06:04:28;;;;;;;5.25;2.10;;;;;;;;;;5036549;28;20056;-88
2022/08/29 06:06:55;;;;;;;6.30;2.78;;;;;;;;;;5036580;28;20464;-88
2022/08/29 06:09:22;;;;;;;7.75;3.03;;;;;;;;;;5036619;28;20081;-88
2022/08/29 06:11:51;;;;;;;11.30;3.53;;;;;;;;;;5036622;28;20045;-89
2022/08/29 06:14:19;;;;;;;11.60;3.30;;;;;;;;;;5036116;28;20493;-89
2022/08/29 06:16:46;;;;;;;11.80;3.45;;;;;;;;;;5036164;28;20508;-89
2022/08/29 06:19:13;;;;;;;5.40;2.80;;;;;;;;;;5036349;28;20081;-88
2022/08/29 06:21:41;;;;;;;7.68;3.28;;;;;;;;;;5036365;28;20132;-88
2022/08/29 06:24:08;;;;;;;7.25;2.50;;;;;;;;;;5036364;28;20080;-90
2022/08/29 06:26:35;;;;;;;5.72;2.35;;;;;;;;;;5036397;28;20041;-90
2022/08/29 06:29:04;;;;;;;11.80;2.55;;;;;;;;;;5036477;28;20064;-88
2022/08/29 06:31:31;;;;;;;6.35;2.78;;;;;;;;;;5036363;28;20048;-89
2022/08/29 06:34:01;;;;;;;13.45;3.53;;;;;;;;;;5035822;28;20056;-88
2022/08/29 06:36:31;;;;;;;12.45;3.47;;;;;;;;;;5036637;28;20504;-88
2022/08/29 06:39:05;;;;;;;5.43;2.28;;;;;;;;;;5036710;28;20061;-88
2022/08/29 06:41:33;;;;;;;5.78;2.28;;;;;;;;;;5035994;28;20041;-88
2022/08/29 06:44:01;;;;;;;7.28;2.55;;;;;;;;;;5035789;28;20110;-88
2022/08/29 06:46:33;;;;;;;6.10;2.72;;;;;;;;;;5035703;28;20053;-88
2022/08/29 06:49:01;;;;;;;6.80;2.53;;;;;;;;;;5035995;28;20045;-88
2022/08/29 06:51:31;;;;;;;9.35;3.28;;;;;;;;;;5035990;28;20069;-89
2022/08/29 06:53:59;;;;;;;6.80;2.58;;;;;;;;;;5035717;28;20053;-88
2022/08/29 06:56:27;;;;;;;4.30;2.50;;;;;;;;;;5035859;28;20132;-88
2022/08/29 06:58:55;;;;;;;6.57;2.88;;;;;;;;;;5035914;28;20143;-89
2022/08/29 07:01:22;;;;;;;10.65;2.97;;;;;;;;;;5035962;28;20072;-88
2022/08/29 07:03:52;;;;;;;10.75;3.00;;;;;;;;;;5035804;28;20045;-89
2022/08/29 07:06:19;;;;;;;15.20;3.47;;;;;;;;;;5035751;28;20068;-89
2022/08/29 07:08:47;;;;;;;21.67;7.32;;;;;;;;;;5035994;28;20053;-90
2022/08/29 07:11:22;;;;;;;29.50;8.45;;;;;;;;;;5036958;28;20091;-89
2022/08/29 07:13:50;;;;;;;16.50;5.15;;;;;;;;;;5037194;28;20045;-89
2022/08/29 07:16:17;;;;;;;22.75;8.48;;;;;;;;;;5035151;28;20084;-90
2022/08/29 07:18:45;;;;;;;20.75;8.18;;;;;;;;;;5034989;28;20055;-91
2022/08/29 07:21:14;;;;;;;27.58;6.78;;;;;;;;;;5038171;28;20049;-91
2022/08/29 07:23:46;;;;;;;18.65;5.22;;;;;;;;;;5040473;28;20052;-92
2022/08/29 07:26:18;;;;;;;29.80;7.05;;;;;;;;;;5039303;28;20083;-90
2022/08/29 07:28:46;;;;;;;22.88;6.10;;;;;;;;;;5039491;28;20072;-93
2022/08/29 07:31:13;;;;;;;22.58;5.47;;;;;;;;;;5039350;28;20115;-92
2022/08/29 07:33:40;;;;;;;16.60;4.32;;;;;;;;;;5039077;28;20049;-89
2022/08/29 07:36:08;;;;;;;22.92;5.22;;;;;;;;;;5039262;28;20076;-91
2022/08/29 07:38:36;;;;;;;19.08;4.93;;;;;;;;;;5039353;28;20053;-91
2022/08/29 07:41:04;;;;;;;19.23;4.85;;;;;;;;;;5039050;28;20071;-91
2022/08/29 07:43:32;;;;;;;21.23;4.70;;;;;;;;;;5039304;28;20408;-89
2022/08/29 07:46:04;;;;;;;14.93;4.72;;;;;;;;;;5038845;28;20139;-91
2022/08/29 07:48:33;;;;;;;21.70;4.22;;;;;;;;;;5039332;28;20100;-90
2022/08/29 07:51:00;;;;;;;11.60;4.10;;;;;;;;;;5039085;28;20080;-91
2022/08/29 07:53:27;;;;;;;11.02;3.67;;;;;;;;;;5038866;28;20064;-91
2022/08/29 07:55:57;;;;;;;8.15;3.70;;;;;;;;;;5039416;28;20453;-91
2022/08/29 07:58:24;;;;;;;12.77;3.72;;;;;;;;;;5038828;28;20075;-90
2022/08/29 08:00:51;;;;;;;8.05;3.10;;;;;;;;;;5038723;28;20064;-90
2022/08/29 08:03:20;;;;;;;8.52;3.30;;;;;;;;;;5038805;28;20171;-91
2022/08/29 08:05:47;;;;;;;9.48;3.22;;;;;;;;;;5038622;28;20087;-90
2022/08/29 08:08:17;;;;;;;7.88;3.63;;;;;;;;;;5039017;28;20048;-88
2022/08/29 08:10:45;;;;;;;7.10;3.67;;;;;;;;;;5038544;28;20056;-90
2022/08/29 08:13:18;;;;;;;5.80;3.20;;;;;;;;;;5039077;28;20087;-92
2022/08/29 08:15:45;;;;;;;6.68;3.53;;;;;;;;;;5037727;28;20132;-90
2022/08/29 08:18:15;;;;;;;8.45;3.78;;;;;;;;;;5038657;28;20052;-89
2022/08/29 08:20:47;;;;;;;6.95;3.72;;;;;;;;;;5055825;28;20049;-91
2022/08/29 08:23:15;;;;;;;7.72;3.83;;;;;;;;;;5038082;28;20072;-89
2022/08/29 08:25:43;;;;;;;7.60;3.25;;;;;;;;;;5055287;28;20063;-87
2022/08/29 08:28:12;;;;;;;6.88;3.30;;;;;;;;;;5055483;28;20484;-88
2022/08/29 08:30:40;;;;;;;7.20;3.45;;;;;;;;;;5054709;28;20045;-87
2022/08/29 08:33:08;;;;;;;5.00;3.55;;;;;;;;;;5036044;28;20053;-89
2022/08/29 08:35:37;;;;;;;4.90;2.67;;;;;;;;;;5037665;28;20092;-89
2022/08/29 08:38:08;;;;;;;6.35;3.30;;;;;;;;;;5038233;28;20107;-86
2022/08/29 08:40:41;;;;;;;7.25;3.00;;;;;;;;;;5037666;28;20053;-87
2022/08/29 08:43:09;;;;;;;5.05;3.05;;;;;;;;;;5038245;28;20426;-90
2022/08/29 08:45:37;;;;;;;7.10;3.15;;;;;;;;;;5037669;28;20080;-88
2022/08/29 08:48:08;;;;;;;8.02;3.58;;;;;;;;;;5037786;28;20496;-89
2022/08/29 08:50:44;;;;;;;5.95;3.10;;;;;;;;;;5037773;28;20048;-90
2022/08/29 08:53:31;;;;;;;3.95;3.22;;;;;;;;;;5055120;28;20127;-89
2022/08/29 08:56:01;;;;;;;4.05;3.15;;;;;;;;;;5037161;28;20412;-88
2022/08/29 08:58:32;;;;;;;39.10;13.18;;;;;;;;;;5037532;28;20048;-88
2022/08/29 09:01:09;;;;;;;4.55;2.83;;;;;;;;;;5054661;28;20128;-88
2022/08/29 09:03:37;;;;;;;26.70;9.95;;;;;;;;;;5055030;28;20057;-90
2022/08/29 09:06:30;;;;;;;45.50;20.77;;;;;;;;;;5054557;28;20124;-90
2022/08/29 09:09:10;;;;;;;22.37;8.63;;;;;;;;;;5037756;28;20095;-90
2022/08/29 09:11:47;;;;;;;20.60;4.93;;;;;;;;;;5037600;28;20110;-86
2022/08/29 09:14:32;;;;;;;33.65;18.27;;;;;;;;;;5037031;28;20493;-88
2022/08/29 09:16:59;;;;;;;8.77;4.00;;;;;;;;;;5036654;28;20114;-84
2022/08/29 09:19:27;;;;;;;7.85;3.83;;;;;;;;;;5054671;28;20080;-88
2022/08/29 09:21:58;;;;;;;6.18;2.80;;;;;;;;;;5036897;28;20583;-88
2022/08/29 09:24:32;;;;;;;24.17;11.25;;;;;;;;;;5036708;28;20107;-88
2022/08/29 09:26:59;;;;;;;7.90;4.28;;;;;;;;;;5036404;28;20138;-87
2022/08/29 09:29:27;;;;;;;21.33;8.88;;;;;;;;;;5036758;28;20056;-85
2022/08/29 09:32:04;;;;;;;4.13;2.63;;;;;;;;;;5036478;28;20131;-88
2022/08/29 09:34:34;;;;;;;7.10;3.13;;;;;;;;;;5053970;28;20485;-87
2022/08/29 09:37:23;;;;;;;15.43;3.78;;;;;;;;;;5054990;28;20048;-89
2022/08/29 09:40:13;;;;;;;5.75;2.70;;;;;;;;;;5054595;28;20053;-86
2022/08/29 09:42:50;;;;;;;17.08;4.85;;;;;;;;;;5029205;28;20049;-86
2022/08/29 09:45:24;;;;;;;11.10;3.58;;;;;;;;;;5036486;28;20048;-88
2022/08/29 09:48:08;;;;;;;5.45;2.85;;;;;;;;;;5036605;28;20127;-86
2022/08/29 09:50:36;;;;;;;3.50;2.42;;;;;;;;;;5036636;28;20481;-89
2022/08/29 09:53:04;;;;;;;5.70;2.50;;;;;;;;;;5054159;28;20104;-88
2022/08/29 09:55:50;;;;;;;5.68;2.65;;;;;;;;;;5054006;28;20049;-88
2022/08/29 09:58:17;;;;;;;5.57;2.50;;;;;;;;;;5036638;28;20083;-87
2022/08/29 10:00:59;;;;;;;8.07;3.83;;;;;;;;;;5036675;28;20088;-85
2022/08/29 10:03:29;;;;;;;13.55;4.43;;;;;;;;;;5036617;28;20072;-89
2022/08/29 10:06:15;;;;;;;5.22;2.80;;;;;;;;;;5053743;28;20417;-85
2022/08/29 10:08:54;;;;;;;3.60;2.63;;;;;;;;;;5053582;28;20473;-86
2022/08/29 10:11:24;;;;;;;4.80;2.53;;;;;;;;;;5036283;28;20049;-91
2022/08/29 10:14:07;;;;;;;3.95;2.63;;;;;;;;;;5035843;28;20461;-88
2022/08/29 10:16:45;;;;;;;6.25;3.28;;;;;;;;;;5036757;28;20056;-87
2022/08/29 10:19:15;;;;;;;5.65;2.60;;;;;;;;;;5036016;28;20052;-88
2022/08/29 10:21:51;;;;;;;4.57;2.58;;;;;;;;;;5053465;28;20128;-85
2022/08/29 10:24:18;;;;;;;4.22;2.40;;;;;;;;;;5035990;28;20045;-87
2022/08/29 10:27:01;;;;;;;4.00;2.10;;;;;;;;;;5035986;28;20087;-87
2022/08/29 10:29:47;;;;;;;4.27;2.17;;;;;;;;;;5036359;28;20045;-88
2022/08/29 10:32:31;;;;;;;9.95;3.08;;;;;;;;;;5053830;28;20045;-86
2022/08/29 10:34:58;;;;;;;5.53;2.67;;;;;;;;;;5035781;28;20671;-88
2022/08/29 10:37:37;;;;;;;7.18;2.63;;;;;;;;;;5053660;28;20048;-88
2022/08/29 10:40:08;;;;;;;6.35;2.63;;;;;;;;;;5036144;28;20073;-89
2022/08/29 10:42:39;;;;;;;3.70;2.40;;;;;;;;;;5036078;28;20443;-88
2022/08/29 10:45:21;;;;;;;4.10;2.40;;;;;;;;;;5035883;28;20041;-88
2022/08/29 10:47:58;;;;;;;7.00;2.37;;;;;;;;;;5035741;28;20063;-89
2022/08/29 10:50:28;;;;;;;7.10;2.95;;;;;;;;;;5035735;28;20291;-85
2022/08/29 10:53:13;;;;;;;6.82;3.00;;;;;;;;;;5038114;28;20044;-90
2022/08/29 10:55:44;;;;;;;5.85;2.60;;;;;;;;;;5037144;28;20099;-87
2022/08/29 10:58:30;;;;;;;4.47;2.40;;;;;;;;;;5039677;28;20522;-86
2022/08/29 11:01:02;;;;;;;7.25;2.42;;;;;;;;;;5039803;28;20084;-87
2022/08/29 11:03:49;;;;;;;6.72;2.92;;;;;;;;;;5040643;28;20049;-89
2022/08/29 11:06:19;;;;;;;4.75;2.40;;;;;;;;;;5039622;28;20143;-87
2022/08/29 11:08:49;;;;;;;5.30;2.50;;;;;;;;;;5040052;28;20057;-86
2022/08/29 11:11:17;;;;;;;4.15;2.47;;;;;;;;;;5039523;28;20468;-85
2022/08/29 11:13:50;;;;;;;15.80;3.50;;;;;;;;;;5056665;28;20108;-88
2022/08/29 11:16:38;;;;;;;5.00;2.63;;;;;;;;;;5038859;28;20477;-87
2022/08/29 11:19:18;;;;;;;5.43;2.67;;;;;;;;;;5039162;28;20315;-88
2022/08/29 11:22:08;;;;;;;5.53;2.58;;;;;;;;;;5039958;28;20446;-88
2022/08/29 11:24:37;;;;;;;8.70;3.00;;;;;;;;;;5039098;28;20045;-88
2022/08/29 11:27:11;;;;;;;5.30;2.78;;;;;;;;;;5039287;28;20141;-88
2022/08/29 11:29:56;;;;;;;7.85;2.70;;;;;;;;;;5056843;28;20085;-88
2022/08/29 11:32:25;;;;;;;6.88;2.75;;;;;;;;;;5056511;28;20088;-87
2022/08/29 11:35:16;;;;;;;5.20;2.50;;;;;;;;;;5038770;28;20489;-88
2022/08/29 11:38:02;;;;;;;6.97;2.60;;;;;;;;;;5039276;28;20080;-87
2022/08/29 11:40:50;;;;;;;9.52;2.67;;;;;;;;;;5039204;28;20139;-86
2022/08/29 11:43:42;;;;;;;7.30;2.55;;;;;;;;;;5012941;28;20051;-88
2022/08/29 11:46:10;;;;;;;5.63;2.95;;;;;;;;;;5038711;28;20044;-85
2022/08/29 11:48:42;;;;;;;5.70;3.00;;;;;;;;;;5039169;28;20508;-88
2022/08/29 11:51:28;;;;;;;3.63;2.38;;;;;;;;;;5038689;28;20084;-87
2022/08/29 11:53:55;;;;;;;5.15;2.22;;;;;;;;;;5038696;28;20084;-88
2022/08/29 11:56:25;;;;;;;12.00;2.60;;;;;;;;;;5038834;28;20551;-87
2022/08/29 11:58:56;;;;;;;3.72;2.35;;;;;;;;;;5041944;28;20049;-88
2022/08/29 12:01:36;;;;;;;6.32;2.65;;;;;;;;;;5044829;28;20489;-88
2022/08/29 12:04:08;;;;;;;6.47;2.72;;;;;;;;;;5038444;28;20049;-88
2022/08/29 12:06:42;;;;;;;5.05;2.50;;;;;;;;;;5038253;28;20107;-87
2022/08/29 12:09:12;;;;;;;4.25;2.30;;;;;;;;;;5038806;28;20072;-86
2022/08/29 12:11:59;;;;;;;3.08;2.05;;;;;;;;;;5038554;28;20053;-87
2022/08/29 12:14:40;;;;;;;9.60;2.92;;;;;;;;;;5055596;28;20073;-86
2022/08/29 12:17:16;;;;;;;7.82;2.58;;;;;;;;;;5037957;28;20492;-87
2022/08/29 12:19:52;;;;;;;6.07;2.63;;;;;;;;;;5038372;28;20091;-85
2022/08/29 12:22:37;;;;;;;5.72;2.33;;;;;;;;;;5038391;28;20091;-85
2022/08/29 12:25:23;;;;;;;9.65;2.42;;;;;;;;;;5037855;28;20053;-84
2022/08/29 12:27:57;;;;;;;8.00;2.90;;;;;;;;;;5038108;28;20049;-86
2022/08/29 12:30:24;;;;;;;6.13;2.58;;;;;;;;;;5038040;28;20135;-88
2022/08/29 12:33:03;;;;;;;5.07;2.13;;;;;;;;;;5038244;28;20072;-87
2022/08/29 12:35:37;;;;;;;11.02;2.92;;;;;;;;;;5037829;28;20057;-89
2022/08/29 12:38:27;;;;;;;4.72;2.40;;;;;;;;;;5038137;28;20084;-89
2022/08/29 12:41:04;;;;;;;4.22;2.00;;;;;;;;;;5038125;28;20064;-89
2022/08/29 12:43:38;;;;;;;5.63;2.35;;;;;;;;;;5055644;28;20076;-88
2022/08/29 12:46:09;;;;;;;10.18;2.22;;;;;;;;;;5037630;28;20048;-93
2022/08/29 12:48:45;;;;;;;3.78;2.20;;;;;;;;;;5037940;28;20076;-87
2022/08/29 12:51:40;;;;;;;3.88;2.08;;;;;;;;;;5039517;28;20057;-87
2022/08/29 12:54:07;;;;;;;;;;;;;;;;;;5037986;28;20053;-87
2022/08/29 12:56:36;;;;;;;3.50;2.00;;;;;;;;;;5037803;28;19921;-88
2022/08/29 12:59:04;;;;;;;5.05;2.78;;;;;;;;;;5037505;28;20053;-87
2022/08/29 13:01:36;;;;;;;5.15;2.58;;;;;;;;;;5037436;28;20464;-84
2022/08/29 13:04:09;;;;;;;5.00;2.42;;;;;;;;;;5037541;28;20678;-87
2022/08/29 13:06:37;;;;;;;5.30;2.10;;;;;;;;;;5037431;28;20056;-89
2022/08/29 13:09:05;;;;;;;3.42;1.80;;;;;;;;;;5037459;28;20049;-87
2022/08/29 13:11:32;;;;;;;4.15;2.05;;;;;;;;;;5037465;28;20080;-88
2022/08/29 13:14:20;;;;;;;4.60;2.55;;;;;;;;;;5037280;28;20073;-88
2022/08/29 13:16:49;;;;;;;6.38;2.33;;;;;;;;;;5035910;28;20084;-87
2022/08/29 13:19:20;;;;;;;6.90;2.42;;;;;;;;;;5036282;28;20049;-88
2022/08/29 13:21:48;;;;;;;5.13;2.13;;;;;;;;;;5036883;28;20087;-85
2022/08/29 13:24:19;;;;;;;4.47;2.20;;;;;;;;;;5037323;28;20102;-87
2022/08/29 13:26:51;;;;;;;7.10;2.38;;;;;;;;;;5037089;28;20049;-86
2022/08/29 13:29:35;;;;;;;5.10;2.17;;;;;;;;;;5038801;28;20041;-89
2022/08/29 13:32:08;;;;;;;4.90;2.28;;;;;;;;;;5036669;28;20083;-88
2022/08/29 13:34:35;;;;;;;4.30;2.30;;;;;;;;;;5036764;28;20111;-88
2022/08/29 13:37:06;;;;;;;8.90;2.17;;;;;;;;;;5036995;28;20405;-88
2022/08/29 13:39:46;;;;;;;4.53;2.22;;;;;;;;;;5038313;28;20045;-88
2022/08/29 13:42:16;;;;;;;5.40;2.30;;;;;;;;;;5036390;28;20049;-89
2022/08/29 13:44:50;;;;;;;3.80;2.00;;;;;;;;;;5036675;28;20053;-88
2022/08/29 13:47:19;;;;;;;4.10;2.08;;;;;;;;;;5036684;28;20052;-89
2022/08/29 13:49:47;;;;;;;4.55;2.33;;;;;;;;;;5036761;28;20139;-90
2022/08/29 13:52:15;;;;;;;5.18;2.20;;;;;;;;;;5036858;28;20573;-89
2022/08/29 13:54:44;;;;;;;4.35;2.15;;;;;;;;;;5036602;28;20382;-87
2022/08/29 13:57:14;;;;;;;5.25;2.22;;;;;;;;;;5036498;28;20060;-88
2022/08/29 13:59:41;;;;;;;3.90;2.28;;;;;;;;;;5036944;28;20069;-88
2022/08/29 14:02:08;;;;;;;5.53;2.30;;;;;;;;;;5035950;28;20136;-88
2022/08/29 14:04:37;;;;;;;5.53;2.10;;;;;;;;;;5036662;28;20045;-91
2022/08/29 14:07:11;;;;;;;6.00;2.45;;;;;;;;;;5036483;28;20045;-88
2022/08/29 14:09:40;;;;;;;6.30;2.05;;;;;;;;;;5035852;28;20588;-88
2022/08/29 14:12:08;;;;;;;7.82;2.33;;;;;;;;;;5036408;28;20131;-88
2022/08/29 14:14:35;;;;;;;4.55;2.50;;;;;;;;;;5036282;28;20076;-88
2022/08/29 14:17:03;;;;;;;8.18;2.75;;;;;;;;;;5038018;28;20079;-87
2022/08/29 14:19:30;;;;;;;3.75;2.20;;;;;;;;;;5038044;28;20455;-89
2022/08/29 14:21:59;;;;;;;6.75;2.65;;;;;;;;;;5036188;28;20500;-88
2022/08/29 14:24:30;;;;;;;4.75;2.30;;;;;;;;;;5037244;28;20124;-90
2022/08/29 14:26:57;;;;;;;5.35;2.30;;;;;;;;;;5036404;28;20073;-89
2022/08/29 14:29:28;;;;;;;6.10;2.40;;;;;;;;;;5036654;28;20110;-88
2022/08/29 14:31:57;;;;;;;5.50;2.25;;;;;;;;;;5036056;28;20064;-87
2022/08/29 14:34:24;;;;;;;6.25;2.30;;;;;;;;;;5035933;28;20049;-89
2022/08/29 14:36:56;;;;;;;5.85;2.08;;;;;;;;;;5036952;28;20053;-91
2022/08/29 14:39:23;;;;;;;4.45;2.80;;;;;;;;;;5036147;28;20104;-86
2022/08/29 14:41:53;;;;;;;3.30;2.17;;;;;;;;;;5036223;28;20110;-88
2022/08/29 14:44:20;;;;;;;11.13;2.67;;;;;;;;;;5035920;28;20052;-89
2022/08/29 14:46:48;;;;;;;5.85;2.47;;;;;;;;;;5035938;28;20408;-88
2022/08/29 14:49:15;;;;;;;3.50;2.05;;;;;;;;;;5035954;28;20053;-91
2022/08/29 14:51:46;;;;;;;3.50;2.20;;;;;;;;;;5035955;28;20412;-88
2022/08/29 14:54:13;;;;;;;4.80;2.47;;;;;;;;;;5034573;28;20132;-88
2022/08/29 14:56:41;;;;;;;3.72;2.47;;;;;;;;;;5035817;28;20132;-89
2022/08/29 14:59:17;;;;;;;4.07;2.50;;;;;;;;;;5037074;28;20493;-89